createdAt,value
2019-03-31T00:09:40.971Z,41.85
2019-03-31T00:19:43.642Z,31.68
2019-03-31T00:29:46.143Z,33.45
2019-03-31T00:39:48.982Z,36.57
2019-03-31T00:49:52.012Z,38.33
2019-03-31T01:10:16.626Z,36.65
2019-03-31T01:20:20.141Z,44.67
2019-03-31T01:30:23.706Z,34.40
2019-03-31T01:40:28.491Z,38.10
2019-03-31T01:50:30.978Z,40.58
2019-03-31T02:00:33.475Z,43.93
2019-03-31T02:10:36.622Z,47.50
2019-03-31T02:20:39.139Z,58.75
2019-03-31T02:30:42.229Z,62.20
2019-03-31T02:40:44.898Z,65.47
2019-03-31T02:50:49.608Z,68.65
2019-03-31T03:00:53.407Z,84.92
2019-03-31T03:11:00.183Z,67.92
2019-03-31T03:21:03.931Z,62.10
2019-03-31T03:31:14.269Z,72.55
2019-03-31T03:41:11.665Z,74.70
2019-03-31T03:51:14.479Z,69.50
2019-03-31T04:01:17.399Z,84.20
2019-03-31T04:11:27.237Z,82.57
2019-03-31T04:21:30.339Z,98.75
2019-03-31T04:31:32.846Z,82.02
2019-03-31T04:41:35.335Z,82.90
2019-03-31T04:51:37.954Z,92.57
2019-03-31T05:01:41.154Z,98.77
2019-03-31T05:11:44.739Z,102.58
2019-03-31T05:21:47.603Z,99.62
2019-03-31T05:31:50.615Z,100.40
2019-03-31T05:51:54.778Z,102.07
2019-03-31T06:01:57.353Z,97.60
2019-03-31T06:12:00.083Z,120.93
2019-03-31T06:22:02.754Z,106.72
2019-03-31T06:32:05.524Z,102.05
2019-03-31T06:42:08.295Z,94.42
2019-03-31T06:52:11.036Z,113.72
2019-03-31T07:02:14.106Z,91.28
2019-03-31T07:12:17.909Z,100.18
2019-03-31T07:22:20.438Z,103.55
2019-03-31T07:32:23.094Z,88.87
2019-03-31T07:42:25.641Z,87.92
2019-03-31T07:52:28.248Z,75.45
2019-03-31T08:02:31.784Z,92.27
2019-03-31T08:12:34.273Z,75.72
2019-03-31T08:22:36.946Z,70.50
2019-03-31T08:32:40.763Z,80.80
2019-03-31T08:42:43.260Z,81.32
2019-03-31T08:52:46.426Z,79.37
2019-03-31T09:02:50.161Z,80.28
2019-03-31T09:12:52.906Z,88.58
2019-03-31T09:22:56.494Z,85.28
2019-03-31T09:32:59.093Z,80.35
2019-03-31T09:43:01.853Z,74.77
2019-03-31T09:53:05.142Z,71.33
2019-03-31T10:03:07.695Z,64.10
2019-03-31T10:13:10.965Z,67.73
2019-03-31T10:23:13.457Z,54.65
2019-03-31T10:33:16.214Z,53.33
2019-03-31T10:43:19.595Z,49.55
2019-03-31T10:53:22.503Z,52.00
2019-03-31T11:13:26.986Z,42.33
2019-03-31T11:23:29.468Z,42.65
2019-03-31T11:33:32.050Z,43.00
2019-03-31T11:43:34.808Z,33.88
2019-03-31T11:53:38.497Z,35.10
2019-03-31T12:03:41.318Z,33.58
2019-03-31T12:23:46.681Z,28.05
2019-03-31T12:33:49.546Z,26.50
2019-03-31T12:43:53.516Z,21.65
2019-03-31T12:53:56.066Z,18.42
2019-03-31T13:03:59.263Z,23.20
2019-03-31T13:14:03.191Z,18.92
2019-03-31T13:24:05.759Z,16.77
2019-03-31T13:34:08.718Z,19.05
2019-03-31T13:44:11.450Z,19.07
2019-03-31T13:54:13.961Z,14.18
2019-03-31T14:04:16.606Z,11.45
2019-03-31T14:14:19.676Z,10.93
2019-03-31T14:24:22.339Z,11.83
2019-03-31T14:34:24.852Z,21.62
2019-03-31T14:44:27.386Z,9.38
2019-03-31T14:54:30.003Z,11.22
2019-03-31T15:04:32.449Z,10.10
2019-03-31T15:14:35.092Z,10.70
2019-03-31T15:24:37.874Z,10.18
2019-03-31T15:34:40.372Z,8.65
2019-03-31T15:44:42.851Z,9.65
2019-03-31T15:54:45.451Z,11.45
2019-03-31T16:04:47.919Z,13.38
2019-03-31T16:14:51.690Z,8.53
2019-03-31T16:24:55.427Z,7.80
2019-03-31T16:34:57.424Z,9.25
2019-03-31T16:44:59.361Z,11.53
2019-03-31T16:55:01.346Z,7.03
2019-03-31T17:05:04.148Z,8.70
2019-03-31T17:25:08.888Z,9.10
2019-03-31T17:45:12.767Z,15.83
2019-03-31T17:55:15.424Z,18.37
2019-03-31T18:05:17.815Z,14.70
2019-03-31T18:15:20.393Z,15.07
2019-03-31T18:25:22.329Z,11.77
2019-03-31T18:35:24.528Z,16.75
2019-03-31T18:45:26.503Z,28.83
2019-03-31T18:55:28.474Z,11.63
2019-03-31T19:05:30.712Z,17.67
2019-03-31T19:15:32.962Z,15.53
2019-03-31T19:25:35.238Z,18.63
2019-03-31T19:35:37.461Z,14.23
2019-03-31T19:45:39.450Z,12.93
2019-03-31T19:55:41.435Z,9.93
2019-03-31T20:05:44.711Z,16.87
2019-03-31T20:15:46.705Z,10.53
2019-03-31T20:25:48.798Z,12.75
2019-03-31T20:35:50.750Z,13.40
2019-03-31T20:45:53.106Z,11.40
2019-03-31T20:55:55.400Z,21.17
2019-03-31T21:05:58.020Z,16.90
2019-03-31T21:16:00.694Z,9.93
2019-03-31T21:26:02.928Z,15.30
2019-03-31T21:36:04.905Z,9.00
2019-03-31T21:46:06.886Z,18.50
2019-03-31T21:56:08.868Z,11.75
2019-03-31T22:06:11.316Z,9.13
2019-03-31T22:16:13.435Z,10.43
2019-03-31T22:26:19.486Z,18.32
2019-03-31T22:36:21.781Z,7.25
2019-03-31T22:46:24.038Z,9.05
2019-03-31T22:56:26.064Z,11.93
2019-03-31T23:06:28.403Z,10.25
2019-03-31T23:16:30.406Z,9.93
2019-03-31T23:26:32.759Z,9.25
2019-03-31T23:36:34.717Z,10.87
2019-03-31T23:46:36.827Z,9.38
2019-03-31T23:56:39.170Z,10.87
